createdAt,value
2023-03-03T00:00:50.502Z,30.10
2023-03-03T00:02:52.467Z,33.60
2023-03-03T00:04:55.101Z,35.27
2023-03-03T00:06:57.083Z,39.57
2023-03-03T00:08:59.185Z,32.90
2023-03-03T00:11:03.226Z,46.57
2023-03-03T00:13:15.117Z,39.60
2023-03-03T00:15:19.698Z,36.27
2023-03-03T00:17:27.057Z,29.13
2023-03-03T00:19:38.401Z,39.33
2023-03-03T00:21:43.016Z,30.00
2023-03-03T00:23:44.996Z,34.17
2023-03-03T00:25:50.272Z,29.90
2023-03-03T00:27:52.515Z,35.10
2023-03-03T00:29:56.980Z,34.47
2023-03-03T00:32:10.261Z,32.67
2023-03-03T00:34:31.206Z,37.23
2023-03-03T00:36:37.760Z,38.43
2023-03-03T00:38:39.828Z,37.50
2023-03-03T00:40:42.166Z,40.57
2023-03-03T00:42:56.792Z,38.53
2023-03-03T00:45:00.265Z,35.40
2023-03-03T00:47:19.308Z,29.27
2023-03-03T00:49:27.054Z,33.43
2023-03-03T00:51:30.999Z,40.63
2023-03-03T00:53:32.960Z,36.83
2023-03-03T00:55:35.724Z,36.67
2023-03-03T00:57:38.030Z,44.93
2023-03-03T00:59:42.376Z,44.33
2023-03-03T01:01:44.511Z,45.77
2023-03-03T01:03:46.762Z,47.00
2023-03-03T01:05:49.776Z,65.33
2023-03-03T01:07:51.799Z,41.40
2023-03-03T01:09:53.804Z,42.53
2023-03-03T01:11:56.230Z,42.93
2023-03-03T01:13:58.297Z,48.77
2023-03-03T01:16:02.634Z,43.57
2023-03-03T01:18:04.698Z,36.93
2023-03-03T01:20:09.090Z,37.50
2023-03-03T01:22:11.128Z,32.77
2023-03-03T01:24:13.134Z,44.10
2023-03-03T01:26:15.247Z,35.33
2023-03-03T01:28:17.730Z,32.47
2023-03-03T01:30:19.957Z,38.90
2023-03-03T01:32:22.506Z,32.47
2023-03-03T01:34:24.995Z,29.90
2023-03-03T01:36:29.003Z,34.80
2023-03-03T01:38:31.992Z,27.97
2023-03-03T01:40:34.018Z,45.03
2023-03-03T01:42:38.126Z,34.30
2023-03-03T01:44:40.121Z,38.00
2023-03-03T01:46:55.842Z,31.30
2023-03-03T01:49:03.278Z,30.80
2023-03-03T01:51:18.462Z,34.53
2023-03-03T01:53:29.323Z,33.60
2023-03-03T01:55:35.580Z,31.87
2023-03-03T01:57:41.194Z,29.93
2023-03-03T01:59:47.422Z,34.93
2023-03-03T02:01:49.861Z,29.60
2023-03-03T02:03:53.443Z,28.60
2023-03-03T02:05:59.021Z,34.27
2023-03-03T02:08:01.421Z,31.30
2023-03-03T02:10:12.445Z,29.83
2023-03-03T02:12:16.701Z,31.90
2023-03-03T02:14:19.252Z,30.07
2023-03-03T02:16:21.576Z,31.30
2023-03-03T02:18:23.763Z,33.43
2023-03-03T02:20:39.740Z,30.70
2023-03-03T02:23:15.466Z,32.87
2023-03-03T02:25:50.609Z,32.60
2023-03-03T02:27:53.019Z,30.83
2023-03-03T02:29:56.278Z,36.83
2023-03-03T02:31:58.446Z,34.13
2023-03-03T02:34:00.545Z,38.87
2023-03-03T02:36:02.598Z,24.40
2023-03-03T02:38:22.867Z,34.13
2023-03-03T02:40:25.898Z,31.73
2023-03-03T02:42:29.935Z,32.07
2023-03-03T02:44:34.499Z,19.60
2023-03-03T02:46:39.779Z,24.07
2023-03-03T02:48:41.912Z,22.70
2023-03-03T02:50:44.773Z,23.00
2023-03-03T02:52:47.338Z,20.57
2023-03-03T02:54:49.466Z,21.07
2023-03-03T02:56:51.525Z,25.17
2023-03-03T02:58:53.579Z,22.37
2023-03-03T03:00:56.779Z,24.97
2023-03-03T03:02:59.126Z,25.60
2023-03-03T03:05:01.350Z,27.57
2023-03-03T03:07:03.676Z,25.07
2023-03-03T03:09:08.737Z,29.27
2023-03-03T03:11:10.827Z,22.40
2023-03-03T03:13:13.922Z,25.80
2023-03-03T03:15:17.010Z,25.20
2023-03-03T03:17:19.037Z,19.80
2023-03-03T03:19:21.735Z,26.93
2023-03-03T03:21:23.832Z,27.93
2023-03-03T03:23:25.951Z,24.53
2023-03-03T03:25:27.941Z,22.93
2023-03-03T03:27:29.983Z,22.73
2023-03-03T03:29:32.565Z,25.87
2023-03-03T03:31:34.917Z,23.70
2023-03-03T03:33:38.689Z,29.70
2023-03-03T03:35:45.630Z,26.53
2023-03-03T03:37:49.488Z,22.87
2023-03-03T03:39:51.794Z,28.20
2023-03-03T03:41:54.928Z,38.03
2023-03-03T03:43:57.017Z,28.07
2023-03-03T03:45:59.835Z,26.10
2023-03-03T03:48:02.250Z,29.50
2023-03-03T03:50:06.376Z,29.73
2023-03-03T03:52:08.507Z,28.30
2023-03-03T03:54:10.888Z,31.17
2023-03-03T03:56:13.775Z,28.77
2023-03-03T03:58:18.852Z,27.43
2023-03-03T04:00:27.671Z,31.87
2023-03-03T04:02:34.809Z,29.13
2023-03-03T04:04:37.130Z,30.00
2023-03-03T04:06:40.186Z,35.50
2023-03-03T04:08:42.318Z,28.87
2023-03-03T04:10:45.046Z,29.20
2023-03-03T04:12:47.301Z,27.47
2023-03-03T04:14:50.221Z,26.90
2023-03-03T04:16:52.384Z,24.33
2023-03-03T04:18:54.377Z,32.13
2023-03-03T04:20:57.045Z,27.87
2023-03-03T04:23:00.370Z,26.40
2023-03-03T04:25:06.247Z,28.13
2023-03-03T04:27:13.457Z,27.97
2023-03-03T04:29:15.461Z,26.60
2023-03-03T04:31:20.540Z,26.33
2023-03-03T04:33:23.653Z,27.87
2023-03-03T04:35:25.730Z,25.70
2023-03-03T04:37:28.491Z,27.40
2023-03-03T04:39:30.589Z,24.90
2023-03-03T04:41:33.351Z,23.97
2023-03-03T04:43:35.644Z,27.07
2023-03-03T04:45:39.585Z,25.30
2023-03-03T04:47:42.216Z,23.97
2023-03-03T04:49:44.564Z,28.47
2023-03-03T04:51:46.668Z,30.13
2023-03-03T04:53:49.317Z,23.00
2023-03-03T04:55:52.411Z,24.43
2023-03-03T04:57:55.610Z,21.30
2023-03-03T04:59:58.132Z,23.47
2023-03-03T05:02:00.281Z,25.63
2023-03-03T05:04:02.619Z,27.13
2023-03-03T05:06:04.877Z,27.33
2023-03-03T05:08:06.984Z,27.53
2023-03-03T05:10:09.662Z,27.03
2023-03-03T05:12:11.810Z,32.70
2023-03-03T05:14:13.869Z,25.23
2023-03-03T05:16:16.159Z,26.30
2023-03-03T05:18:19.640Z,22.40
2023-03-03T05:20:21.557Z,27.43
2023-03-03T05:22:24.218Z,24.63
2023-03-03T05:24:26.470Z,24.67
2023-03-03T05:26:28.588Z,23.33
2023-03-03T05:28:30.613Z,19.40
2023-03-03T05:30:32.569Z,27.93
2023-03-03T05:32:34.957Z,26.67
2023-03-03T05:34:37.019Z,23.23
2023-03-03T05:36:39.009Z,24.50
2023-03-03T05:38:41.032Z,25.47
2023-03-03T05:40:43.900Z,20.73
2023-03-03T05:42:45.988Z,23.40
2023-03-03T05:44:48.123Z,26.20
2023-03-03T05:46:50.120Z,28.50
2023-03-03T05:48:52.126Z,27.87
2023-03-03T05:50:54.123Z,22.17
2023-03-03T05:52:56.102Z,26.10
2023-03-03T05:54:58.128Z,26.30
2023-03-03T05:57:00.161Z,21.97
2023-03-03T05:59:02.154Z,23.80
2023-03-03T06:01:04.553Z,27.00
2023-03-03T06:03:07.206Z,26.03
2023-03-03T06:05:09.903Z,25.07
2023-03-03T06:07:11.930Z,27.17
2023-03-03T06:09:13.979Z,29.23
2023-03-03T06:11:18.569Z,30.07
2023-03-03T06:13:21.597Z,28.73
2023-03-03T06:15:23.814Z,25.40
2023-03-03T06:17:26.043Z,22.13
2023-03-03T06:19:28.121Z,22.73
2023-03-03T06:21:30.196Z,26.10
2023-03-03T06:23:32.291Z,27.00
2023-03-03T06:25:35.780Z,26.67
2023-03-03T06:27:37.918Z,29.87
2023-03-03T06:29:39.967Z,24.30
2023-03-03T06:31:42.032Z,25.30
2023-03-03T06:33:44.046Z,21.43
2023-03-03T06:35:52.758Z,29.37
2023-03-03T06:37:54.784Z,25.33
2023-03-03T06:39:56.828Z,27.30
2023-03-03T06:41:58.824Z,26.47
2023-03-03T06:44:00.874Z,21.20
2023-03-03T06:46:04.081Z,33.93
2023-03-03T06:48:06.591Z,26.73
2023-03-03T06:50:11.077Z,31.77
2023-03-03T06:52:15.294Z,22.57
2023-03-03T06:54:19.470Z,30.13
2023-03-03T06:56:22.063Z,28.00
2023-03-03T06:58:29.554Z,26.93
2023-03-03T07:00:31.868Z,22.93
2023-03-03T07:02:33.858Z,26.90
2023-03-03T07:04:35.973Z,32.50
2023-03-03T07:06:40.253Z,24.73
2023-03-03T07:08:42.311Z,28.63
2023-03-03T07:10:45.912Z,29.50
2023-03-03T07:12:47.987Z,25.93
2023-03-03T07:14:58.508Z,23.13
2023-03-03T07:17:04.961Z,26.80
2023-03-03T07:19:34.227Z,29.83
2023-03-03T07:21:38.744Z,24.33
2023-03-03T07:23:42.877Z,30.20
2023-03-03T07:25:46.700Z,25.67
2023-03-03T07:27:48.781Z,41.97
2023-03-03T07:29:52.854Z,33.23
2023-03-03T07:31:59.092Z,36.70
2023-03-03T07:34:01.843Z,31.63
2023-03-03T07:36:04.457Z,30.53
2023-03-03T07:38:37.471Z,29.50
2023-03-03T07:40:43.301Z,33.20
2023-03-03T07:42:45.996Z,38.27
2023-03-03T07:44:59.056Z,26.53
2023-03-03T07:47:19.945Z,28.90
2023-03-03T07:49:23.235Z,26.70
2023-03-03T07:51:37.306Z,24.83
2023-03-03T07:53:39.304Z,28.93
2023-03-03T07:55:41.576Z,33.87
2023-03-03T07:57:43.857Z,33.60
2023-03-03T07:59:49.150Z,34.60
2023-03-03T08:01:55.237Z,32.60
2023-03-03T08:03:57.682Z,41.60
2023-03-03T08:06:01.429Z,35.20
2023-03-03T08:08:09.226Z,34.53
2023-03-03T08:10:32.436Z,31.90
2023-03-03T08:12:39.372Z,43.10
2023-03-03T08:14:41.380Z,34.50
2023-03-03T08:16:43.401Z,39.73
2023-03-03T08:18:47.697Z,31.80
2023-03-03T08:20:53.698Z,35.00
2023-03-03T08:22:55.929Z,31.20
2023-03-03T08:24:58.106Z,27.00
2023-03-03T08:27:00.200Z,34.87
2023-03-03T08:29:02.480Z,31.60
2023-03-03T08:31:16.714Z,31.43
2023-03-03T08:33:22.365Z,37.60
2023-03-03T08:35:24.353Z,28.53
2023-03-03T08:42:11.534Z,30.43
2023-03-03T08:44:13.672Z,31.87
2023-03-03T08:46:16.296Z,31.53
2023-03-03T08:48:18.992Z,24.47
2023-03-03T08:50:21.329Z,31.83
2023-03-03T08:52:23.406Z,33.80
2023-03-03T08:58:07.171Z,32.57
2023-03-03T09:00:11.931Z,25.03
2023-03-03T09:02:13.913Z,24.37
2023-03-03T09:04:15.901Z,27.70
2023-03-03T09:06:18.027Z,25.43
2023-03-03T09:08:20.106Z,20.97
2023-03-03T09:10:27.503Z,26.30
2023-03-03T09:12:34.052Z,24.03
2023-03-03T09:14:36.006Z,25.73
2023-03-03T09:16:40.466Z,22.67
2023-03-03T09:18:42.939Z,21.10
2023-03-03T09:20:48.785Z,25.00
2023-03-03T09:22:51.265Z,30.50
2023-03-03T09:24:54.706Z,23.30
2023-03-03T09:26:58.935Z,22.80
2023-03-03T09:29:14.931Z,26.80
2023-03-03T09:31:31.313Z,22.10
2023-03-03T09:33:49.816Z,28.27
2023-03-03T09:36:19.430Z,24.37
2023-03-03T09:38:27.727Z,26.97
2023-03-03T09:40:53.532Z,28.23
2023-03-03T09:43:18.328Z,26.30
2023-03-03T09:45:44.111Z,25.80
2023-03-03T09:47:49.100Z,29.20
2023-03-03T09:50:02.438Z,26.57
2023-03-03T09:52:10.914Z,23.80
2023-03-03T09:54:15.732Z,24.30
2023-03-03T09:56:40.012Z,33.43
2023-03-03T09:58:52.647Z,19.67
2023-03-03T10:01:21.112Z,30.77
2023-03-03T10:03:32.532Z,26.67
2023-03-03T10:05:37.443Z,24.50
2023-03-03T10:07:43.858Z,37.43
2023-03-03T10:09:58.141Z,31.67
2023-03-03T10:12:09.283Z,35.80
2023-03-03T10:14:27.009Z,34.13
2023-03-03T10:16:59.259Z,30.37
2023-03-03T10:19:15.526Z,35.93
2023-03-03T10:21:23.133Z,27.47
2023-03-03T10:23:52.905Z,26.77
2023-03-03T10:26:10.167Z,30.87
2023-03-03T10:28:37.094Z,37.47
2023-03-03T10:31:04.782Z,30.83
2023-03-03T10:33:25.161Z,34.90
2023-03-03T10:35:30.149Z,32.83
2023-03-03T10:37:41.575Z,26.93
2023-03-03T10:39:53.112Z,30.73
2023-03-03T10:42:05.520Z,27.90
2023-03-03T10:44:10.311Z,29.07
2023-03-03T10:46:34.285Z,29.17
2023-03-03T10:49:17.827Z,32.30
2023-03-03T10:51:44.239Z,25.97
2023-03-03T10:54:09.451Z,27.50
2023-03-03T10:56:52.127Z,23.27
2023-03-03T10:58:58.688Z,27.57
2023-03-03T11:01:31.585Z,25.13
2023-03-03T11:03:45.808Z,20.60
2023-03-03T11:06:02.385Z,23.80
2023-03-03T11:08:17.887Z,26.00
2023-03-03T11:10:29.020Z,30.70
2023-03-03T11:13:11.063Z,28.73
2023-03-03T11:15:28.170Z,25.07
2023-03-03T11:17:47.102Z,27.67
2023-03-03T11:20:24.548Z,23.17
2023-03-03T11:22:55.295Z,26.63
2023-03-03T11:25:11.889Z,26.67
2023-03-03T11:27:41.537Z,27.43
2023-03-03T11:30:01.617Z,34.60
2023-03-03T11:32:22.831Z,20.37
2023-03-03T11:34:55.869Z,28.17
2023-03-03T11:37:02.609Z,23.57
2023-03-03T11:39:09.557Z,22.20
2023-03-03T11:41:17.773Z,20.73
2023-03-03T11:43:43.001Z,18.03
2023-03-03T11:45:52.126Z,24.10
2023-03-03T11:48:03.618Z,21.73
2023-03-03T11:50:18.443Z,27.57
2023-03-03T11:52:48.253Z,23.07
2023-03-03T11:55:04.254Z,25.60
2023-03-03T11:57:34.412Z,25.60
2023-03-03T11:59:44.923Z,24.97
2023-03-03T12:01:53.713Z,26.37
2023-03-03T12:04:03.773Z,23.87
2023-03-03T12:06:20.907Z,26.80
2023-03-03T12:08:44.431Z,24.27
2023-03-03T12:10:53.036Z,23.90
2023-03-03T12:13:03.736Z,24.53
2023-03-03T12:15:37.345Z,29.23
2023-03-03T12:17:45.587Z,22.80
2023-03-03T12:20:09.572Z,22.50
2023-03-03T12:22:31.232Z,20.30
2023-03-03T12:24:54.273Z,18.93
2023-03-03T12:27:20.709Z,19.57
2023-03-03T12:29:46.838Z,18.60
2023-03-03T12:32:23.831Z,18.70
2023-03-03T12:34:38.166Z,19.93
2023-03-03T12:36:55.004Z,21.40
2023-03-03T12:39:34.822Z,20.30
2023-03-03T12:42:03.859Z,22.77
2023-03-03T12:44:23.403Z,21.33
2023-03-03T12:46:36.372Z,17.57
2023-03-03T12:48:44.209Z,23.70
2023-03-03T12:51:17.535Z,20.17
2023-03-03T12:53:31.876Z,22.00
2023-03-03T12:55:42.897Z,21.93
2023-03-03T12:58:06.614Z,19.17
2023-03-03T13:00:11.651Z,19.77
2023-03-03T13:02:52.024Z,24.13
2023-03-03T13:04:57.060Z,24.27
2023-03-03T13:06:58.994Z,23.80
2023-03-03T13:09:19.913Z,25.33
2023-03-03T13:11:30.610Z,27.23
2023-03-03T13:13:48.136Z,27.77
2023-03-03T13:16:06.400Z,22.63
2023-03-03T13:18:34.731Z,23.67
2023-03-03T13:20:50.570Z,24.17
2023-03-03T13:23:17.916Z,25.23
2023-03-03T13:25:19.958Z,21.53
2023-03-03T13:27:25.848Z,22.03
2023-03-03T13:29:32.074Z,19.80
2023-03-03T13:31:46.452Z,32.77
2023-03-03T13:33:57.065Z,23.00
2023-03-03T13:36:02.507Z,28.53
2023-03-03T13:38:06.034Z,22.57
2023-03-03T13:40:14.299Z,24.30
2023-03-03T13:42:40.522Z,22.13
2023-03-03T13:44:43.333Z,24.57
2023-03-03T13:46:48.291Z,18.13
2023-03-03T13:49:21.502Z,20.80
2023-03-03T13:51:48.937Z,20.77
2023-03-03T13:54:24.918Z,22.07
2023-03-03T13:56:42.024Z,20.00
2023-03-03T13:58:53.045Z,20.20
2023-03-03T14:01:02.608Z,19.73
2023-03-03T14:03:19.630Z,21.47
2023-03-03T14:05:34.516Z,21.17
2023-03-03T14:07:50.665Z,17.67
2023-03-03T14:10:00.573Z,21.80
2023-03-03T14:12:15.875Z,16.43
2023-03-03T14:14:45.321Z,21.70
2023-03-03T14:16:50.523Z,18.23
2023-03-03T14:18:57.792Z,18.83
2023-03-03T14:21:19.611Z,21.80
2023-03-03T14:23:27.818Z,23.20
2023-03-03T14:25:58.052Z,20.53
2023-03-03T14:28:04.848Z,19.50
2023-03-03T14:30:22.202Z,22.93
2023-03-03T14:32:43.161Z,23.07
2023-03-03T14:35:00.195Z,20.50
2023-03-03T14:37:23.919Z,24.40
2023-03-03T14:39:41.363Z,25.90
2023-03-03T14:41:43.460Z,22.07
2023-03-03T14:43:57.812Z,25.43
2023-03-03T14:46:22.819Z,21.70
2023-03-03T14:48:27.178Z,20.53
2023-03-03T14:50:36.874Z,21.47
2023-03-03T14:52:40.190Z,24.17
2023-03-03T14:54:46.190Z,29.53
2023-03-03T14:57:00.902Z,21.70
2023-03-03T14:59:23.854Z,23.83
2023-03-03T15:01:34.891Z,25.77
2023-03-03T15:03:39.966Z,23.00
2023-03-03T15:05:50.005Z,26.43
2023-03-03T15:08:09.215Z,21.03
2023-03-03T15:10:13.407Z,20.90
2023-03-03T15:12:24.038Z,20.57
2023-03-03T15:14:32.724Z,23.00
2023-03-03T15:16:35.215Z,25.43
2023-03-03T15:19:00.485Z,23.67
2023-03-03T15:21:10.824Z,26.50
2023-03-03T15:23:27.550Z,19.97
2023-03-03T15:25:43.703Z,23.03
2023-03-03T15:27:52.287Z,19.40
2023-03-03T15:30:08.589Z,21.87
2023-03-03T15:32:29.643Z,20.60
2023-03-03T15:35:00.219Z,24.47
2023-03-03T15:37:09.521Z,22.43
2023-03-03T15:39:17.815Z,20.20
2023-03-03T15:41:27.157Z,21.73
2023-03-03T15:44:07.191Z,24.53
2023-03-03T15:46:29.100Z,23.27
2023-03-03T15:48:50.287Z,26.13
2023-03-03T15:51:16.259Z,19.63
2023-03-03T15:53:29.909Z,19.50
2023-03-03T15:55:51.637Z,19.10
2023-03-03T15:58:12.292Z,17.83
2023-03-03T16:00:29.927Z,22.33
2023-03-03T16:02:54.685Z,19.93
2023-03-03T16:05:15.216Z,18.20
2023-03-03T16:07:29.356Z,19.80
2023-03-03T16:10:12.656Z,24.00
2023-03-03T16:12:43.933Z,17.67
2023-03-03T16:14:48.948Z,22.27
2023-03-03T16:17:22.741Z,18.00
2023-03-03T16:19:41.261Z,20.60
2023-03-03T16:21:49.248Z,20.27
2023-03-03T16:24:03.664Z,15.30
2023-03-03T16:26:43.046Z,25.43
2023-03-03T16:29:03.757Z,15.67
2023-03-03T16:31:05.712Z,19.67
2023-03-03T16:33:34.305Z,24.53
2023-03-03T16:35:57.341Z,20.10
2023-03-03T16:38:05.227Z,20.33
2023-03-03T16:40:22.195Z,26.80
2023-03-03T16:42:32.497Z,19.57
2023-03-03T16:44:45.098Z,21.93
2023-03-03T16:46:49.455Z,20.57
2023-03-03T16:49:07.548Z,18.70
2023-03-03T16:51:34.818Z,19.20
2023-03-03T16:54:21.186Z,18.30
2023-03-03T16:56:28.925Z,19.83
2023-03-03T16:58:35.493Z,23.43
2023-03-03T17:01:00.055Z,16.53
2023-03-03T17:03:26.378Z,17.53
2023-03-03T17:05:31.474Z,20.90
2023-03-03T17:08:11.710Z,19.43
2023-03-03T17:10:19.501Z,27.17
2023-03-03T17:12:47.626Z,23.63
2023-03-03T17:14:59.193Z,21.13
2023-03-03T17:17:15.044Z,20.30
2023-03-03T17:19:28.501Z,20.63
2023-03-03T17:21:57.000Z,24.57
2023-03-03T17:24:23.094Z,25.47
2023-03-03T17:26:48.339Z,20.50
2023-03-03T17:29:12.198Z,23.03
2023-03-03T17:31:45.578Z,28.27
2023-03-03T17:33:57.403Z,22.50
2023-03-03T17:36:18.558Z,33.20
2023-03-03T17:38:32.823Z,26.20
2023-03-03T17:40:53.499Z,23.97
2023-03-03T17:43:08.939Z,31.47
2023-03-03T17:45:16.027Z,26.33
2023-03-03T17:47:58.875Z,27.60
2023-03-03T17:50:15.477Z,29.60
2023-03-03T17:52:21.378Z,29.90
2023-03-03T17:54:35.105Z,34.30
2023-03-03T17:57:04.987Z,30.30
2023-03-03T17:59:13.226Z,32.67
2023-03-03T18:01:34.165Z,36.30
2023-03-03T18:03:38.967Z,39.53
2023-03-03T18:06:12.104Z,37.50
2023-03-03T18:08:32.896Z,39.10
2023-03-03T18:10:50.076Z,39.13
2023-03-03T18:12:59.685Z,46.77
2023-03-03T18:15:58.793Z,47.47
2023-03-03T18:18:37.921Z,50.97
2023-03-03T18:20:58.540Z,52.50
2023-03-03T18:23:30.877Z,55.97
2023-03-03T18:25:55.198Z,84.87
2023-03-03T18:27:59.949Z,64.60
2023-03-03T18:30:07.969Z,63.30
2023-03-03T18:32:22.249Z,73.37
2023-03-03T18:34:31.952Z,61.20
2023-03-03T18:36:33.923Z,64.53
2023-03-03T18:38:38.676Z,61.33
2023-03-03T18:40:51.201Z,56.10
2023-03-03T18:42:54.424Z,61.23
2023-03-03T18:44:57.421Z,65.37
2023-03-03T18:46:59.674Z,62.73
2023-03-03T18:49:01.622Z,64.00
2023-03-03T18:51:08.334Z,59.43
2023-03-03T18:53:26.277Z,68.43
2023-03-03T18:55:28.530Z,70.43
2023-03-03T18:57:30.841Z,77.43
2023-03-03T18:59:35.946Z,86.77
2023-03-03T19:01:43.873Z,89.93
2023-03-03T19:03:47.108Z,89.80
2023-03-03T19:05:54.136Z,98.23
2023-03-03T19:08:03.351Z,103.53
2023-03-03T19:10:28.355Z,108.10
2023-03-03T19:12:43.935Z,110.57
2023-03-03T19:14:49.414Z,104.50
2023-03-03T19:16:52.731Z,103.10
2023-03-03T19:19:08.901Z,103.93
2023-03-03T19:21:10.822Z,121.03
2023-03-03T19:23:15.636Z,113.57
2023-03-03T19:25:24.403Z,109.97
2023-03-03T19:27:44.733Z,105.00
2023-03-03T19:29:46.678Z,102.37
2023-03-03T19:31:57.747Z,97.63
2023-03-03T19:34:07.826Z,90.37
2023-03-03T19:36:29.182Z,89.83
2023-03-03T19:38:38.129Z,84.63
2023-03-03T19:40:47.909Z,83.57
2023-03-03T19:43:00.625Z,74.40
2023-03-03T19:45:20.925Z,76.67
2023-03-03T19:47:36.243Z,79.07
2023-03-03T19:50:05.759Z,68.30
2023-03-03T19:52:30.342Z,65.40
2023-03-03T19:54:50.740Z,64.37
2023-03-03T19:56:54.148Z,65.60
2023-03-03T19:59:02.833Z,62.83
2023-03-03T20:01:17.768Z,57.30
2023-03-03T20:03:39.646Z,54.50
2023-03-03T20:05:48.394Z,50.03
2023-03-03T20:08:03.503Z,49.07
2023-03-03T20:10:21.856Z,51.10
2023-03-03T20:12:29.938Z,52.13
2023-03-03T20:14:44.410Z,48.10
2023-03-03T20:16:48.326Z,47.33
2023-03-03T20:19:12.282Z,47.47
2023-03-03T20:21:20.027Z,48.17
2023-03-03T20:23:58.017Z,42.37
2023-03-03T20:26:06.004Z,43.70
2023-03-03T20:28:29.405Z,53.67
2023-03-03T20:30:38.880Z,39.07
2023-03-03T20:32:43.801Z,43.90
2023-03-03T20:35:23.417Z,47.93
2023-03-03T20:37:44.599Z,42.10
2023-03-03T20:39:55.985Z,44.10
2023-03-03T20:42:05.692Z,38.67
2023-03-03T20:44:14.471Z,45.67
2023-03-03T20:46:34.722Z,43.50
2023-03-03T20:49:09.036Z,47.23
2023-03-03T20:51:17.824Z,44.73
2023-03-03T20:54:01.388Z,38.83
2023-03-03T20:56:06.368Z,40.43
2023-03-03T20:58:26.841Z,49.90
2023-03-03T21:00:48.028Z,45.53
2023-03-03T21:03:08.886Z,49.77
2023-03-03T21:05:18.688Z,47.97
2023-03-03T21:07:26.280Z,40.17
2023-03-03T21:09:34.492Z,50.50
2023-03-03T21:11:36.448Z,50.83
2023-03-03T21:13:46.208Z,47.40
2023-03-03T21:15:56.363Z,53.30
2023-03-03T21:17:58.887Z,47.93
2023-03-03T21:20:31.376Z,44.90
2023-03-03T21:22:33.537Z,46.43
2023-03-03T21:25:11.188Z,55.60
2023-03-03T21:27:34.379Z,51.17
2023-03-03T21:29:36.345Z,41.37
2023-03-03T21:31:49.062Z,44.47
2023-03-03T21:33:56.375Z,46.03
2023-03-03T21:35:58.949Z,39.17
2023-03-03T21:38:00.918Z,40.33
2023-03-03T21:40:26.654Z,38.40
2023-03-03T21:42:42.509Z,40.37
2023-03-03T21:44:46.685Z,47.57
2023-03-03T21:46:48.694Z,42.87
2023-03-03T21:48:51.975Z,41.83
2023-03-03T21:50:53.984Z,37.83
2023-03-03T21:52:56.207Z,44.97
2023-03-03T21:54:58.247Z,38.83
2023-03-03T21:57:00.479Z,41.27
2023-03-03T21:59:02.451Z,45.80
2023-03-03T22:01:06.259Z,43.47
2023-03-03T22:03:08.346Z,37.70
2023-03-03T22:05:10.458Z,41.70
2023-03-03T22:07:12.577Z,35.13
2023-03-03T22:09:15.018Z,44.83
2023-03-03T22:11:17.156Z,42.67
2023-03-03T22:13:20.202Z,42.20
2023-03-03T22:15:22.339Z,38.67
2023-03-03T22:17:25.578Z,45.23
2023-03-03T22:19:27.532Z,37.50
2023-03-03T22:21:30.256Z,50.63
2023-03-03T22:23:32.940Z,36.57
2023-03-03T22:25:34.962Z,35.10
2023-03-03T22:27:37.050Z,41.40
2023-03-03T22:29:39.213Z,43.23
2023-03-03T22:31:41.221Z,36.77
2023-03-03T22:33:43.450Z,36.77
2023-03-03T22:35:45.488Z,40.23
2023-03-03T22:37:47.505Z,37.73
2023-03-03T22:39:49.486Z,34.30
2023-03-03T22:41:51.486Z,37.90
2023-03-03T22:43:54.019Z,36.43
2023-03-03T22:45:56.760Z,41.67
2023-03-03T22:47:59.058Z,46.27
2023-03-03T22:50:01.130Z,30.70
2023-03-03T22:52:03.238Z,37.10
2023-03-03T22:54:05.269Z,30.40
2023-03-03T22:56:07.524Z,36.07
2023-03-03T22:58:10.255Z,41.70
2023-03-03T23:00:13.193Z,32.17
2023-03-03T23:02:15.163Z,37.03
2023-03-03T23:04:17.158Z,32.97
2023-03-03T23:06:19.265Z,33.33
2023-03-03T23:08:21.461Z,32.03
2023-03-03T23:10:23.510Z,36.10
2023-03-03T23:12:25.648Z,47.43
2023-03-03T23:14:28.022Z,35.43
2023-03-03T23:16:30.146Z,40.70
2023-03-03T23:18:32.179Z,45.57
2023-03-03T23:20:34.172Z,41.80
2023-03-03T23:22:36.178Z,45.17
2023-03-03T23:24:38.174Z,43.83
2023-03-03T23:26:40.309Z,41.40
2023-03-03T23:28:42.276Z,39.60
2023-03-03T23:30:44.689Z,41.20
2023-03-03T23:32:47.613Z,44.03
2023-03-03T23:34:50.365Z,40.77
2023-03-03T23:36:52.336Z,48.30
2023-03-03T23:38:54.368Z,43.80
2023-03-03T23:40:56.346Z,38.13
2023-03-03T23:42:58.378Z,43.47
2023-03-03T23:45:00.481Z,39.33
2023-03-03T23:47:02.492Z,34.17
2023-03-03T23:49:04.586Z,38.07
2023-03-03T23:51:06.526Z,39.30
2023-03-03T23:53:08.632Z,37.97
2023-03-03T23:55:10.865Z,39.40
2023-03-03T23:57:12.868Z,40.27
2023-03-03T23:59:14.952Z,44.93
